Time;durP1;ratioP1;P1;durP2;ratioP2;P2;SDS_P1;SDS_P2;PMS_P1;PMS_P2;Temp;Humidity;BMP_temperature;BMP_pressure;BME280_temperature;BME280_humidity;BME280_pressure;Samples;Min_cycle;Max_cycle;Signal;HPM_P1;HPM_P2
2023/09/19 00:01:14;;;;;;;0.30;0.30;;;16.90;99.90;;;;;;5000421;28;20017;-80
2023/09/19 00:03:42;;;;;;;0.50;0.50;;;16.80;99.90;;;;;;5003031;28;20096;-80
2023/09/19 00:06:07;;;;;;;0.93;0.93;;;16.80;99.90;;;;;;4998500;28;20250;-81
2023/09/19 00:08:34;;;;;;;0.40;0.40;;;16.80;99.90;;;;;;4999639;28;20037;-80
2023/09/19 00:11:05;;;;;;;0.40;0.40;;;16.80;99.90;;;;;;5002029;28;20470;-80
2023/09/19 00:13:32;;;;;;;0.38;0.38;;;16.80;99.90;;;;;;5005446;28;20025;-80
2023/09/19 00:15:58;;;;;;;0.75;0.75;;;16.80;99.90;;;;;;5008032;28;20393;-80
2023/09/19 00:18:29;;;;;;;0.40;0.40;;;16.80;99.90;;;;;;5009977;28;20092;-79
2023/09/19 00:20:58;;;;;;;0.52;0.52;;;16.70;99.90;;;;;;5007041;28;20018;-80
2023/09/19 00:23:24;;;;;;;0.60;0.60;;;16.70;99.90;;;;;;5008210;28;20030;-80
2023/09/19 00:25:51;;;;;;;1.55;0.73;;;16.70;99.90;;;;;;5007310;28;20084;-79
2023/09/19 00:28:18;;;;;;;0.40;0.40;;;16.70;99.90;;;;;;5006451;28;20034;-81
2023/09/19 00:30:44;;;;;;;0.40;0.40;;;16.80;99.90;;;;;;5019771;28;20022;-80
2023/09/19 00:33:16;;;;;;;0.40;0.40;;;16.80;99.90;;;;;;5006661;28;20366;-80
2023/09/19 00:35:51;;;;;;;0.40;0.40;;;16.80;99.90;;;;;;5007859;28;20018;-80
2023/09/19 00:38:17;;;;;;;0.40;0.40;;;16.70;99.90;;;;;;5008245;28;20259;-80
2023/09/19 00:40:46;;;;;;;0.40;0.40;;;16.70;99.90;;;;;;5007974;28;20192;-80
2023/09/19 00:43:12;;;;;;;1.00;1.00;;;16.70;99.90;;;;;;5007825;28;20018;-80
2023/09/19 00:45:41;;;;;;;1.08;1.08;;;16.60;99.90;;;;;;5007548;28;20033;-80
2023/09/19 00:48:08;;;;;;;0.40;0.40;;;16.60;99.90;;;;;;5012172;28;20029;-80
2023/09/19 00:50:35;;;;;;;1.45;1.35;;;16.60;99.90;;;;;;5006842;28;20473;-79
2023/09/19 00:53:00;;;;;;;0.47;0.47;;;16.50;99.90;;;;;;5008364;28;20029;-80
2023/09/19 00:55:29;;;;;;;0.30;0.30;;;16.50;99.90;;;;;;5008140;28;20037;-82
2023/09/19 00:57:56;;;;;;;0.40;0.40;;;16.50;99.90;;;;;;5007282;28;20029;-80
2023/09/19 01:00:23;;;;;;;0.50;0.50;;;16.50;99.90;;;;;;5007390;28;20026;-80
2023/09/19 01:02:48;;;;;;;0.40;0.40;;;16.50;99.90;;;;;;5008801;28;20324;-79
2023/09/19 01:05:14;;;;;;;0.40;0.40;;;16.50;99.90;;;;;;5008379;28;20440;-80
2023/09/19 01:07:40;;;;;;;0.47;0.47;;;16.60;99.90;;;;;;5005396;28;20030;-80
2023/09/19 01:10:14;;;;;;;0.50;0.50;;;16.50;99.90;;;;;;5009210;28;20131;-80
2023/09/19 01:12:56;;;;;;;0.40;0.40;;;16.50;99.90;;;;;;5000114;28;20141;-80
2023/09/19 01:15:42;;;;;;;0.47;0.47;;;16.50;99.90;;;;;;5007583;28;20708;-80
2023/09/19 01:18:44;;;;;;;0.40;0.40;;;16.40;99.90;;;;;;5004861;28;20045;-80
2023/09/19 01:21:31;;;;;;;0.40;0.40;;;16.50;99.90;;;;;;5021011;28;20044;-80
2023/09/19 01:24:18;;;;;;;0.40;0.40;;;16.40;99.90;;;;;;5005907;28;20432;-80
2023/09/19 01:27:14;;;;;;;0.40;0.40;;;16.20;99.90;;;;;;5005767;28;20164;-80
2023/09/19 01:29:46;;;;;;;0.40;0.40;;;16.30;99.90;;;;;;5005031;28;20612;-79
2023/09/19 01:32:24;;;;;;;0.40;0.40;;;16.30;99.90;;;;;;5002689;28;20065;-80
2023/09/19 01:34:57;;;;;;;0.40;0.40;;;16.20;99.90;;;;;;5002507;28;20018;-80
2023/09/19 01:37:26;;;;;;;0.40;0.40;;;16.30;99.90;;;;;;5003644;28;20033;-81
2023/09/19 01:39:59;;;;;;;0.40;0.40;;;16.10;99.90;;;;;;5004875;28;20117;-79
2023/09/19 01:43:08;;;;;;;0.40;0.40;;;16.10;99.90;;;;;;4994915;28;20022;-80
2023/09/19 01:45:40;;;;;;;0.30;0.30;;;16.20;99.90;;;;;;5003146;28;20260;-81
2023/09/19 01:48:13;;;;;;;0.30;0.30;;;16.00;99.90;;;;;;5005318;28;20022;-80
2023/09/19 01:50:49;;;;;;;1.23;1.17;;;16.10;99.90;;;;;;5008433;28;20026;-81
2023/09/19 01:53:33;;;;;;;0.60;0.60;;;16.10;99.90;;;;;;5003382;28;20088;-81
2023/09/19 01:56:01;;;;;;;0.40;0.40;;;16.00;99.90;;;;;;5004854;28;20022;-80
2023/09/19 01:58:35;;;;;;;0.40;0.40;;;16.00;99.90;;;;;;5000933;28;20367;-81
2023/09/19 02:01:03;;;;;;;0.30;0.30;;;16.00;99.90;;;;;;5002750;28;20504;-80
2023/09/19 02:03:30;;;;;;;1.30;1.20;;;16.00;99.90;;;;;;5004023;28;20109;-79
2023/09/19 02:05:56;;;;;;;0.30;0.30;;;16.00;99.90;;;;;;5001978;28;20026;-81
2023/09/19 02:08:23;;;;;;;0.30;0.30;;;15.90;99.90;;;;;;5004871;28;20040;-80
2023/09/19 02:10:49;;;;;;;0.30;0.30;;;15.90;99.90;;;;;;5002799;28;20686;-80
2023/09/19 02:13:19;;;;;;;0.40;0.40;;;15.90;99.90;;;;;;5004570;28;20030;-80
2023/09/19 02:15:46;;;;;;;0.32;0.32;;;15.90;99.90;;;;;;5004914;28;20390;-80
2023/09/19 02:18:12;;;;;;;0.40;0.40;;;15.90;99.90;;;;;;5002421;28;20030;-80
2023/09/19 02:20:38;;;;;;;0.30;0.30;;;15.90;99.90;;;;;;5001457;28;20052;-79
2023/09/19 02:23:04;;;;;;;0.30;0.30;;;15.80;99.90;;;;;;5003599;28;20048;-80
2023/09/19 02:25:31;;;;;;;0.20;0.20;;;15.80;99.90;;;;;;5001092;28;20029;-81
2023/09/19 02:27:58;;;;;;;0.13;0.13;;;15.80;99.90;;;;;;5000085;28;20029;-80
2023/09/19 02:30:27;;;;;;;0.30;0.30;;;15.80;99.90;;;;;;5003913;28;20028;-80
2023/09/19 02:32:53;;;;;;;0.20;0.20;;;15.80;99.90;;;;;;5003507;28;20052;-80
2023/09/19 02:35:21;;;;;;;0.10;0.10;;;15.80;99.90;;;;;;4999037;28;20114;-80
2023/09/19 02:37:50;;;;;;;0.10;0.10;;;15.80;99.90;;;;;;5002018;28;20417;-80
2023/09/19 02:40:18;;;;;;;0.10;0.10;;;15.80;99.90;;;;;;5001432;28;20032;-80
2023/09/19 02:42:55;;;;;;;0.20;0.20;;;15.80;99.90;;;;;;5002230;28;20105;-79
2023/09/19 02:45:21;;;;;;;0.20;0.20;;;15.80;99.90;;;;;;5003531;28;20068;-80
2023/09/19 02:47:47;;;;;;;0.20;0.20;;;15.70;99.90;;;;;;5002359;28;20029;-80
2023/09/19 02:50:15;;;;;;;0.30;0.30;;;15.70;99.90;;;;;;5003609;28;20061;-80
2023/09/19 02:52:45;;;;;;;0.20;0.20;;;15.70;99.90;;;;;;5001457;28;20063;-79
2023/09/19 02:55:14;;;;;;;1.45;1.45;;;15.70;99.90;;;;;;5002866;28;20165;-79
2023/09/19 02:57:42;;;;;;;0.20;0.20;;;15.70;99.90;;;;;;5003288;28;20478;-79
2023/09/19 03:00:12;;;;;;;0.20;0.20;;;15.60;99.90;;;;;;5002479;28;20234;-80
2023/09/19 03:02:39;;;;;;;0.20;0.20;;;15.70;99.90;;;;;;5002384;28;20022;-80
2023/09/19 03:05:07;;;;;;;0.20;0.20;;;15.60;99.90;;;;;;5002106;28;20113;-79
2023/09/19 03:07:32;;;;;;;0.20;0.20;;;15.60;99.90;;;;;;5002416;28;20169;-80
2023/09/19 03:09:58;;;;;;;0.20;0.20;;;15.60;99.90;;;;;;5004220;28;20506;-80
2023/09/19 03:12:24;;;;;;;0.10;0.10;;;15.60;99.90;;;;;;5002822;28;20080;-80
2023/09/19 03:14:50;;;;;;;0.30;0.30;;;15.50;99.90;;;;;;5002598;28;20168;-79
2023/09/19 03:17:16;;;;;;;0.20;0.20;;;15.50;99.90;;;;;;5004425;28;20109;-79
2023/09/19 03:19:41;;;;;;;0.20;0.20;;;15.50;99.90;;;;;;5003525;28;20121;-79
2023/09/19 03:22:07;;;;;;;0.20;0.20;;;15.40;99.90;;;;;;5000972;28;20030;-79
2023/09/19 03:24:35;;;;;;;0.30;0.30;;;15.50;99.90;;;;;;5004829;28;20042;-80
2023/09/19 03:27:01;;;;;;;0.30;0.30;;;15.40;99.90;;;;;;5002852;28;20498;-80
2023/09/19 03:29:26;;;;;;;0.20;0.20;;;15.50;99.90;;;;;;5002824;28;20026;-80
2023/09/19 03:31:54;;;;;;;0.20;0.20;;;15.40;99.90;;;;;;5002547;28;20153;-80
2023/09/19 03:34:20;;;;;;;0.20;0.20;;;15.40;99.90;;;;;;5001955;28;20020;-80
2023/09/19 03:36:46;;;;;;;0.20;0.20;;;15.40;99.90;;;;;;5005695;28;20057;-79
2023/09/19 03:39:15;;;;;;;0.20;0.20;;;15.40;99.90;;;;;;5003690;28;20248;-79
2023/09/19 03:41:41;;;;;;;0.43;0.43;;;15.40;99.90;;;;;;5003817;28;20030;-79
2023/09/19 03:44:07;;;;;;;0.20;0.20;;;15.40;99.90;;;;;;5002381;28;20022;-81
2023/09/19 03:46:35;;;;;;;0.25;0.22;;;15.30;99.90;;;;;;5004394;28;20041;-80
2023/09/19 03:49:00;;;;;;;0.20;0.20;;;15.30;99.90;;;;;;5003244;28;20032;-80
2023/09/19 03:51:26;;;;;;;0.20;0.20;;;15.30;99.90;;;;;;5002011;28;20100;-80
2023/09/19 03:53:52;;;;;;;7.57;0.68;;;15.20;99.90;;;;;;5004944;28;20395;-80
2023/09/19 03:56:17;;;;;;;0.35;0.35;;;15.30;99.90;;;;;;5003365;28;20034;-80
2023/09/19 03:58:43;;;;;;;1.10;0.93;;;15.30;99.90;;;;;;5012680;28;20026;-80
2023/09/19 04:01:08;;;;;;;0.20;0.20;;;15.30;99.90;;;;;;5003957;28;20022;-80
2023/09/19 04:03:45;;;;;;;0.32;0.32;;;15.20;99.90;;;;;;5002386;28;20018;-79
2023/09/19 04:06:11;;;;;;;0.20;0.20;;;15.20;99.90;;;;;;5003171;28;20377;-79
2023/09/19 04:08:37;;;;;;;0.30;0.30;;;15.10;99.90;;;;;;5002708;28;20029;-81
2023/09/19 04:11:03;;;;;;;0.20;0.20;;;15.20;99.90;;;;;;5002856;28;20563;-81
2023/09/19 04:13:29;;;;;;;0.20;0.20;;;15.20;99.90;;;;;;5002549;28;20112;-80
2023/09/19 04:15:55;;;;;;;0.20;0.20;;;15.00;99.90;;;;;;4999435;28;20482;-79
2023/09/19 04:18:23;;;;;;;0.20;0.20;;;15.10;99.90;;;;;;5002592;28;20129;-79
2023/09/19 04:20:52;;;;;;;0.25;0.25;;;15.10;99.90;;;;;;5002888;28;20065;-79
2023/09/19 04:23:20;;;;;;;0.30;0.30;;;15.00;99.90;;;;;;5002683;28;20038;-79
2023/09/19 04:25:48;;;;;;;0.20;0.20;;;15.00;99.90;;;;;;5002040;28;20033;-79
2023/09/19 04:28:15;;;;;;;0.20;0.20;;;15.10;99.90;;;;;;4993292;28;20022;-79
2023/09/19 04:30:41;;;;;;;0.20;0.20;;;15.00;99.90;;;;;;5000490;28;20044;-81
2023/09/19 04:33:07;;;;;;;0.65;0.65;;;15.10;99.90;;;;;;4996567;28;20030;-79
2023/09/19 04:35:33;;;;;;;0.20;0.20;;;15.10;99.90;;;;;;5002620;28;20077;-82
2023/09/19 04:37:58;;;;;;;0.20;0.20;;;15.10;99.90;;;;;;5002589;28;20646;-81
2023/09/19 04:40:26;;;;;;;0.38;0.38;;;15.10;99.90;;;;;;4999240;28;20022;-79
2023/09/19 04:42:56;;;;;;;4.43;2.78;;;15.10;99.90;;;;;;5002145;28;20045;-80
2023/09/19 04:45:23;;;;;;;0.30;0.30;;;15.10;99.90;;;;;;5001145;28;20664;-81
2023/09/19 04:47:48;;;;;;;0.20;0.20;;;15.10;99.90;;;;;;5001749;28;20103;-80
2023/09/19 04:50:14;;;;;;;0.20;0.20;;;15.10;99.90;;;;;;5002687;28;20022;-80
2023/09/19 04:52:42;;;;;;;0.55;0.55;;;15.00;99.90;;;;;;5001032;28;20037;-80
2023/09/19 04:55:09;;;;;;;0.40;0.40;;;15.00;99.90;;;;;;5001966;28;20434;-79
2023/09/19 04:57:36;;;;;;;0.22;0.22;;;15.10;99.90;;;;;;5001098;28;20385;-80
2023/09/19 05:00:06;;;;;;;0.20;0.20;;;15.00;99.90;;;;;;5002837;28;20030;-79
2023/09/19 05:02:34;;;;;;;0.20;0.20;;;15.00;99.90;;;;;;5003061;28;20021;-79
2023/09/19 05:05:00;;;;;;;0.30;0.30;;;15.00;99.90;;;;;;5005377;28;20160;-80
2023/09/19 05:07:26;;;;;;;0.20;0.20;;;15.00;99.90;;;;;;5004684;28;20109;-80
2023/09/19 05:09:51;;;;;;;0.20;0.20;;;15.00;99.90;;;;;;5006623;28;20026;-79
2023/09/19 05:12:19;;;;;;;0.60;0.60;;;15.00;99.90;;;;;;5003446;28;20068;-79
2023/09/19 05:14:45;;;;;;;0.20;0.20;;;15.10;99.90;;;;;;5007798;28;20041;-79
2023/09/19 05:17:10;;;;;;;0.30;0.30;;;15.10;99.90;;;;;;5004653;28;20048;-79
2023/09/19 05:19:36;;;;;;;0.30;0.30;;;15.20;99.90;;;;;;5006110;28;20068;-79
2023/09/19 05:22:04;;;;;;;0.30;0.30;;;15.20;99.90;;;;;;5003932;28;20087;-79
2023/09/19 05:24:30;;;;;;;0.28;0.28;;;15.10;99.90;;;;;;5004810;28;20034;-79
2023/09/19 05:26:56;;;;;;;0.93;0.93;;;15.20;99.90;;;;;;5004630;28;20060;-80
2023/09/19 05:29:22;;;;;;;0.73;0.73;;;15.30;99.90;;;;;;5005083;28;20661;-81
2023/09/19 05:31:49;;;;;;;0.45;0.45;;;15.30;99.90;;;;;;5004818;28;20042;-80
2023/09/19 05:34:15;;;;;;;0.20;0.20;;;15.30;99.90;;;;;;5002685;28;20467;-80
2023/09/19 05:36:41;;;;;;;0.20;0.20;;;15.30;99.90;;;;;;5013881;28;20014;-80
2023/09/19 05:39:09;;;;;;;0.20;0.20;;;15.30;99.90;;;;;;5018569;28;20026;-79
2023/09/19 05:41:39;;;;;;;0.20;0.20;;;15.40;99.90;;;;;;5009038;28;20521;-81
2023/09/19 05:44:06;;;;;;;0.98;0.98;;;15.40;99.90;;;;;;5006639;28;20505;-79
2023/09/19 05:46:34;;;;;;;0.40;0.40;;;15.40;99.90;;;;;;5003415;28;20022;-80
2023/09/19 05:49:00;;;;;;;0.40;0.40;;;15.40;99.90;;;;;;5006317;28;20065;-81
2023/09/19 05:51:28;;;;;;;0.65;0.65;;;15.40;99.90;;;;;;5001900;28;20060;-78
2023/09/19 05:53:54;;;;;;;0.40;0.40;;;15.50;99.90;;;;;;5005796;28;20037;-80
2023/09/19 05:56:20;;;;;;;0.73;0.73;;;15.50;99.90;;;;;;5005733;28;20104;-80
2023/09/19 05:58:49;;;;;;;0.40;0.40;;;15.50;99.90;;;;;;5003015;28;20037;-79
2023/09/19 06:01:15;;;;;;;0.55;0.55;;;15.60;99.90;;;;;;5003902;28;20330;-80
2023/09/19 06:03:43;;;;;;;0.20;0.20;;;15.50;99.90;;;;;;5003839;28;20025;-79
2023/09/19 06:06:39;;;;;;;0.30;0.30;;;15.70;99.90;;;;;;5009526;28;20112;-79
2023/09/19 06:09:08;;;;;;;0.30;0.30;;;15.60;99.90;;;;;;5003626;28;20029;-78
2023/09/19 06:11:35;;;;;;;0.30;0.30;;;15.70;99.90;;;;;;5005132;28;20036;-79
2023/09/19 06:14:04;;;;;;;0.30;0.30;;;15.70;99.90;;;;;;5004055;28;20272;-80
2023/09/19 06:16:32;;;;;;;0.52;0.52;;;15.70;99.90;;;;;;5005988;28;20018;-80
2023/09/19 06:19:00;;;;;;;0.98;0.98;;;15.70;99.90;;;;;;5003659;28;20033;-80
2023/09/19 06:21:27;;;;;;;0.60;0.60;;;15.80;99.90;;;;;;5004468;28;20394;-80
2023/09/19 06:23:56;;;;;;;0.55;0.55;;;15.70;99.90;;;;;;5002217;28;20088;-80
2023/09/19 06:26:23;;;;;;;0.50;0.50;;;15.80;99.90;;;;;;5003307;28;20018;-81
2023/09/19 06:28:49;;;;;;;0.82;0.82;;;15.70;99.90;;;;;;5004297;28;20034;-81
2023/09/19 06:31:14;;;;;;;0.50;0.50;;;15.80;99.90;;;;;;5004312;28;20028;-80
2023/09/19 06:33:40;;;;;;;0.40;0.40;;;15.80;99.90;;;;;;5003025;28;20358;-79
2023/09/19 06:36:07;;;;;;;0.50;0.50;;;15.80;99.90;;;;;;5004222;28;20025;-80
2023/09/19 06:38:37;;;;;;;0.95;0.95;;;15.80;99.90;;;;;;5002984;28;20021;-81
2023/09/19 06:41:09;;;;;;;0.60;0.60;;;15.70;99.90;;;;;;5004318;28;20450;-79
2023/09/19 06:43:35;;;;;;;0.50;0.50;;;15.80;99.90;;;;;;5002196;28;20474;-79
2023/09/19 06:46:02;;;;;;;0.50;0.50;;;15.80;99.90;;;;;;5002823;28;20034;-80
2023/09/19 06:48:29;;;;;;;0.50;0.50;;;15.80;99.90;;;;;;5004857;28;20116;-80
2023/09/19 06:50:55;;;;;;;2.08;1.88;;;16.00;99.90;;;;;;5003338;28;20033;-81
2023/09/19 06:53:23;;;;;;;0.60;0.60;;;15.90;99.90;;;;;;5003093;28;20022;-79
2023/09/19 06:55:50;;;;;;;2.03;1.92;;;15.90;99.90;;;;;;5004755;28;20572;-82
2023/09/19 06:58:19;;;;;;;0.60;0.60;;;15.90;99.90;;;;;;5003540;28;20025;-81
2023/09/19 07:00:44;;;;;;;0.60;0.60;;;16.00;99.90;;;;;;5001136;28;20029;-81
2023/09/19 07:03:13;;;;;;;0.80;0.80;;;16.00;99.90;;;;;;5002460;28;20026;-83
2023/09/19 07:05:39;;;;;;;0.63;0.63;;;16.00;99.90;;;;;;4997387;28;20880;-80
2023/09/19 07:08:07;;;;;;;0.63;0.63;;;16.00;99.90;;;;;;5001861;28;20026;-81
2023/09/19 07:10:33;;;;;;;0.85;0.85;;;16.00;99.90;;;;;;5001664;28;20018;-81
2023/09/19 07:13:04;;;;;;;1.95;1.85;;;16.00;99.90;;;;;;5002450;28;20022;-80
2023/09/19 07:15:38;;;;;;;4.97;1.90;;;16.10;99.90;;;;;;5004306;28;20022;-79
2023/09/19 07:18:05;;;;;;;0.52;0.52;;;16.10;99.90;;;;;;5003976;28;20334;-80
2023/09/19 07:20:32;;;;;;;0.80;0.80;;;16.10;99.90;;;;;;5004844;28;20036;-81
2023/09/19 07:23:01;;;;;;;0.50;0.50;;;16.10;99.90;;;;;;5001772;28;20022;-81
2023/09/19 07:25:30;;;;;;;0.50;0.50;;;16.20;99.90;;;;;;5002575;28;20257;-81
2023/09/19 07:27:59;;;;;;;0.70;0.70;;;16.10;99.90;;;;;;5003099;28;20554;-83
2023/09/19 07:30:26;;;;;;;0.50;0.50;;;16.20;99.90;;;;;;5005315;28;20036;-80
2023/09/19 07:32:52;;;;;;;0.60;0.60;;;16.20;99.90;;;;;;5003700;28;20096;-82
2023/09/19 07:35:19;;;;;;;0.70;0.70;;;16.30;99.90;;;;;;5004527;28;20050;-81
2023/09/19 07:37:49;;;;;;;0.73;0.73;;;16.40;99.90;;;;;;5002569;28;20037;-83
2023/09/19 07:40:15;;;;;;;0.60;0.60;;;16.40;99.90;;;;;;5003359;28;20022;-82
2023/09/19 07:42:44;;;;;;;0.88;0.88;;;16.40;99.90;;;;;;5012762;28;20486;-80
2023/09/19 07:45:14;;;;;;;0.70;0.70;;;16.40;99.90;;;;;;5003603;28;20045;-82
2023/09/19 07:47:43;;;;;;;0.60;0.60;;;16.50;99.90;;;;;;5005895;28;20026;-82
2023/09/19 07:50:09;;;;;;;0.60;0.60;;;16.50;99.90;;;;;;5022772;28;20041;-82
2023/09/19 07:52:35;;;;;;;0.60;0.60;;;16.50;99.90;;;;;;5013116;28;20021;-81
2023/09/19 07:55:06;;;;;;;1.98;1.33;;;16.60;99.90;;;;;;4998105;28;20022;-82
2023/09/19 07:57:34;;;;;;;0.60;0.60;;;16.60;99.90;;;;;;5005073;28;20014;-82
2023/09/19 08:00:00;;;;;;;0.60;0.60;;;16.80;99.90;;;;;;5002762;28;20576;-83
2023/09/19 08:02:25;;;;;;;0.70;0.70;;;16.90;99.90;;;;;;5002533;28;20037;-84
2023/09/19 08:04:52;;;;;;;0.77;0.77;;;16.90;99.90;;;;;;5003001;28;20121;-81
2023/09/19 08:07:18;;;;;;;0.50;0.50;;;16.90;99.90;;;;;;5003841;28;20506;-82
2023/09/19 08:09:48;;;;;;;0.55;0.55;;;16.80;99.90;;;;;;5003281;28;20100;-82
2023/09/19 08:12:14;;;;;;;0.68;0.68;;;16.80;99.90;;;;;;5002973;28;20135;-83
2023/09/19 08:14:47;;;;;;;0.50;0.50;;;16.80;99.90;;;;;;5008026;28;20014;-81
2023/09/19 08:17:12;;;;;;;0.60;0.60;;;16.90;99.90;;;;;;5001478;28;20033;-83
2023/09/19 08:19:41;;;;;;;0.70;0.70;;;16.90;99.90;;;;;;5004296;28;20026;-82
2023/09/19 08:22:10;;;;;;;0.43;0.43;;;16.90;99.90;;;;;;5002750;28;20060;-81
2023/09/19 08:24:36;;;;;;;0.45;0.45;;;16.90;99.90;;;;;;5002705;28;20053;-82
2023/09/19 08:27:04;;;;;;;0.75;0.75;;;17.00;99.90;;;;;;5017863;28;20460;-82
2023/09/19 08:29:31;;;;;;;0.50;0.50;;;17.10;99.90;;;;;;4993504;28;20847;-81
2023/09/19 08:31:57;;;;;;;0.80;0.80;;;17.10;99.90;;;;;;5117554;23;20048;-82
2023/09/19 08:34:24;;;;;;;0.90;0.90;;;17.10;99.90;;;;;;5001466;28;20100;-83
2023/09/19 08:36:58;;;;;;;0.60;0.60;;;17.20;99.90;;;;;;5001363;28;20057;-83
2023/09/19 08:39:25;;;;;;;1.48;1.30;;;17.30;99.90;;;;;;4995181;28;20022;-81
2023/09/19 08:41:59;;;;;;;0.93;0.85;;;17.30;99.90;;;;;;5002888;28;20029;-82
2023/09/19 08:44:25;;;;;;;0.85;0.85;;;17.40;99.90;;;;;;4999224;28;20029;-83
2023/09/19 08:46:55;;;;;;;0.40;0.40;;;17.40;99.90;;;;;;4994837;28;20063;-83
2023/09/19 08:49:50;;;;;;;0.60;0.60;;;17.60;99.90;;;;;;5003061;28;20029;-82
2023/09/19 08:52:34;;;;;;;0.52;0.52;;;17.60;99.90;;;;;;5001357;28;20025;-82
2023/09/19 08:55:10;;;;;;;0.50;0.50;;;17.60;99.90;;;;;;5001085;28;20048;-81
2023/09/19 08:57:41;;;;;;;0.65;0.65;;;17.60;99.90;;;;;;5002001;28;20458;-79
2023/09/19 09:00:14;;;;;;;1.67;1.58;;;17.60;99.90;;;;;;5004919;28;20117;-80
2023/09/19 09:02:43;;;;;;;1.17;1.17;;;17.70;99.90;;;;;;5006575;28;20033;-82
2023/09/19 09:05:12;;;;;;;0.40;0.40;;;17.90;99.90;;;;;;5006956;28;20026;-81
2023/09/19 09:07:38;;;;;;;0.80;0.80;;;17.80;99.90;;;;;;5007368;28;20026;-81
2023/09/19 09:10:05;;;;;;;0.80;0.80;;;18.00;99.90;;;;;;5006776;28;20513;-83
2023/09/19 09:12:31;;;;;;;0.60;0.60;;;18.20;99.90;;;;;;5006067;28;20553;-81
2023/09/19 09:14:57;;;;;;;0.70;0.70;;;18.30;99.90;;;;;;5006371;28;20052;-81
2023/09/19 09:17:24;;;;;;;0.70;0.70;;;18.30;99.90;;;;;;5003244;28;20055;-81
2023/09/19 09:19:53;;;;;;;0.60;0.60;;;18.50;99.90;;;;;;5003772;28;20038;-80
2023/09/19 09:22:21;;;;;;;0.77;0.77;;;18.50;99.90;;;;;;5002412;28;20021;-80
2023/09/19 09:25:04;;;;;;;3.50;1.85;;;18.70;99.90;;;;;;5002801;28;20058;-80
2023/09/19 09:27:31;;;;;;;0.65;0.65;;;19.00;99.90;;;;;;5004898;28;20022;-81
2023/09/19 09:29:57;;;;;;;0.90;0.90;;;19.10;99.90;;;;;;5001671;28;20022;-80
2023/09/19 09:32:33;;;;;;;0.50;0.50;;;19.20;99.90;;;;;;4998531;28;20049;-80
2023/09/19 09:35:00;;;;;;;0.75;0.75;;;19.20;99.90;;;;;;5004176;28;20025;-81
2023/09/19 09:37:41;;;;;;;1.00;1.00;;;19.10;99.90;;;;;;5003925;28;20501;-81
2023/09/19 09:42:41;;;;;;;0.90;0.90;;;19.10;99.90;;;;;;4998987;28;21161;-83
2023/09/19 09:45:48;;;;;;;0.77;0.77;;;19.10;99.90;;;;;;4998657;28;20034;-79
2023/09/19 09:48:18;;;;;;;0.68;0.68;;;19.30;99.90;;;;;;4999544;28;20034;-80
2023/09/19 09:53:21;;;;;;;0.70;0.70;;;19.50;99.90;;;;;;5003325;28;20032;-81
2023/09/19 09:56:13;;;;;;;0.60;0.60;;;19.80;99.90;;;;;;5004392;28;20021;-81
2023/09/19 09:58:59;;;;;;;0.70;0.70;;;20.00;99.90;;;;;;5002169;28;20097;-80
2023/09/19 10:01:26;;;;;;;1.50;1.48;;;19.60;99.90;;;;;;5008394;28;20153;-82
2023/09/19 10:03:58;;;;;;;0.82;0.82;;;19.30;99.90;;;;;;5018665;28;20046;-82
2023/09/19 10:09:11;;;;;;;1.38;1.25;;;19.20;99.90;;;;;;5000817;28;20053;-80
2023/09/19 10:11:59;;;;;;;1.70;1.60;;;19.30;99.90;;;;;;5000839;28;20052;-80
2023/09/19 10:14:31;;;;;;;0.73;0.73;;;19.20;99.90;;;;;;5000724;28;20056;-80
2023/09/19 10:17:03;;;;;;;0.60;0.60;;;19.20;99.90;;;;;;5001238;28;20018;-80
2023/09/19 10:19:46;;;;;;;0.82;0.82;;;19.00;99.90;;;;;;5002995;28;20033;-80
2023/09/19 10:22:14;;;;;;;0.40;0.40;;;19.20;99.90;;;;;;4999280;28;20026;-78
2023/09/19 10:24:41;;;;;;;0.80;0.80;;;19.10;99.90;;;;;;5003336;28;20121;-82
2023/09/19 10:27:08;;;;;;;0.60;0.60;;;19.20;99.90;;;;;;4996853;28;20051;-79
2023/09/19 10:29:39;;;;;;;6.35;2.22;;;19.50;99.90;;;;;;5000193;28;20014;-81
2023/09/19 10:32:06;;;;;;;0.40;0.40;;;19.60;99.90;;;;;;5000287;28;20037;-80
2023/09/19 10:34:44;;;;;;;0.40;0.40;;;19.90;99.90;;;;;;4998672;28;20021;-79
2023/09/19 10:37:13;;;;;;;0.60;0.60;;;20.20;99.90;;;;;;4996812;28;20245;-82
2023/09/19 10:39:42;;;;;;;1.13;1.13;;;20.30;99.90;;;;;;5002320;28;20028;-82
2023/09/19 10:42:17;;;;;;;0.50;0.50;;;20.20;99.90;;;;;;4999370;28;20022;-80
2023/09/19 10:44:44;;;;;;;0.43;0.43;;;20.10;99.90;;;;;;5001393;28;20040;-79
2023/09/19 10:47:11;;;;;;;2.65;2.55;;;20.10;99.90;;;;;;5014361;28;20041;-81
2023/09/19 10:49:46;;;;;;;0.68;0.68;;;20.20;99.90;;;;;;5001497;28;20013;-81
2023/09/19 10:52:19;;;;;;;0.52;0.52;;;20.50;99.90;;;;;;4995249;28;20068;-81
2023/09/19 10:54:52;;;;;;;0.70;0.70;;;20.70;99.90;;;;;;5016644;28;20193;-82
2023/09/19 10:57:27;;;;;;;0.98;0.98;;;20.30;99.90;;;;;;5000310;28;20132;-82
2023/09/19 11:03:18;;;;;;;0.47;0.47;;;20.60;99.90;;;;;;4999075;28;20033;-80
2023/09/19 11:06:09;;;;;;;0.82;0.82;;;20.70;99.90;;;;;;5001441;28;20022;-82
2023/09/19 11:11:38;;;;;;;0.70;0.70;;;20.80;99.90;;;;;;5001390;28;20018;-82
2023/09/19 11:14:14;;;;;;;1.85;1.75;;;20.70;99.90;;;;;;5015766;28;20034;-80
2023/09/19 11:16:40;;;;;;;1.95;1.30;;;20.70;99.90;;;;;;5001081;28;20025;-79
2023/09/19 11:19:10;;;;;;;0.70;0.70;;;20.70;99.90;;;;;;5001743;28;20132;-83
2023/09/19 11:21:37;;;;;;;0.90;0.90;;;20.80;99.90;;;;;;4991383;28;20092;-82
2023/09/19 11:24:24;;;;;;;0.80;0.80;;;21.00;99.90;;;;;;5005232;28;20022;-83
2023/09/19 11:26:52;;;;;;;0.70;0.70;;;21.10;99.90;;;;;;5000979;28;20642;-79
2023/09/19 11:29:29;;;;;;;0.65;0.65;;;20.80;99.40;;;;;;4990234;28;20037;-78
2023/09/19 11:31:56;;;;;;;0.60;0.60;;;20.70;99.50;;;;;;5001809;28;20347;-78
2023/09/19 11:34:44;;;;;;;0.60;0.60;;;20.60;99.90;;;;;;5000437;28;20026;-78
2023/09/19 11:37:11;;;;;;;0.50;0.50;;;20.80;99.80;;;;;;4999809;28;20034;-80
2023/09/19 11:40:00;;;;;;;0.70;0.70;;;21.00;99.90;;;;;;4999799;28;20196;-80
2023/09/19 11:42:45;;;;;;;0.60;0.60;;;20.90;99.90;;;;;;5014742;28;20161;-81
2023/09/19 11:46:01;;;;;;;0.50;0.50;;;21.30;99.90;;;;;;5000417;28;20358;-79
2023/09/19 11:48:27;;;;;;;0.70;0.70;;;21.00;99.40;;;;;;4975478;28;20049;-80
2023/09/19 11:50:53;;;;;;;0.45;0.45;;;20.90;99.00;;;;;;5000135;28;20105;-80
2023/09/19 11:53:20;;;;;;;0.50;0.50;;;20.70;98.90;;;;;;4997781;28;20022;-79
2023/09/19 11:55:46;;;;;;;0.77;0.77;;;20.80;99.30;;;;;;5002874;28;20033;-79
2023/09/19 11:58:16;;;;;;;0.73;0.73;;;20.80;99.20;;;;;;4994423;28;20246;-81
2023/09/19 12:00:45;;;;;;;0.70;0.70;;;20.70;99.50;;;;;;4997956;28;20030;-81
2023/09/19 12:03:12;;;;;;;0.50;0.50;;;20.90;99.90;;;;;;5001893;28;20355;-80
2023/09/19 12:05:39;;;;;;;1.08;1.00;;;20.90;99.30;;;;;;4998561;28;20073;-81
2023/09/19 12:08:08;;;;;;;1.13;1.13;;;20.70;98.80;;;;;;5002720;28;20042;-79
2023/09/19 12:10:45;;;;;;;0.80;0.80;;;20.70;98.90;;;;;;5004935;28;20006;-80
2023/09/19 12:13:18;;;;;;;0.60;0.60;;;20.70;99.00;;;;;;5015748;28;20129;-79
2023/09/19 12:15:47;;;;;;;0.40;0.40;;;20.50;98.50;;;;;;5000179;28;20424;-79
2023/09/19 12:18:30;;;;;;;0.70;0.70;;;20.40;98.60;;;;;;4998438;28;20062;-80
2023/09/19 12:21:00;;;;;;;0.50;0.50;;;20.50;99.10;;;;;;5001025;28;20193;-79
2023/09/19 12:23:25;;;;;;;0.80;0.80;;;20.90;98.70;;;;;;4999979;28;20021;-80
2023/09/19 12:25:53;;;;;;;0.90;0.90;;;21.30;98.30;;;;;;4995487;28;20068;-81
2023/09/19 12:28:22;;;;;;;0.82;0.82;;;21.40;97.70;;;;;;5011380;28;20026;-82
2023/09/19 12:30:49;;;;;;;0.60;0.60;;;21.40;96.50;;;;;;5000293;28;20026;-79
2023/09/19 12:33:25;;;;;;;0.90;0.90;;;21.30;96.30;;;;;;5002782;28;20516;-81
2023/09/19 12:35:53;;;;;;;0.77;0.77;;;21.30;96.40;;;;;;5000690;28;20052;-81
2023/09/19 12:38:24;;;;;;;18.20;1.10;;;21.20;96.50;;;;;;4999733;28;20516;-79
2023/09/19 12:40:52;;;;;;;0.63;0.63;;;21.10;96.10;;;;;;5000982;28;20167;-79
2023/09/19 12:43:19;;;;;;;1.00;1.00;;;21.40;96.40;;;;;;4999710;28;20459;-80
2023/09/19 12:45:45;;;;;;;0.70;0.70;;;21.50;96.40;;;;;;4999319;28;20030;-80
2023/09/19 12:48:31;;;;;;;0.60;0.60;;;21.40;96.20;;;;;;5000187;28;20066;-80
2023/09/19 12:51:00;;;;;;;0.60;0.60;;;21.50;96.60;;;;;;5000366;28;20037;-80
2023/09/19 12:53:29;;;;;;;0.80;0.80;;;21.50;96.10;;;;;;5003350;28;20065;-83
2023/09/19 12:56:05;;;;;;;1.33;1.30;;;21.40;95.80;;;;;;4994676;28;20086;-80
2023/09/19 12:58:32;;;;;;;0.82;0.82;;;21.60;95.40;;;;;;4996452;28;20030;-81
2023/09/19 13:00:58;;;;;;;0.57;0.57;;;21.90;95.80;;;;;;4997959;28;20022;-80
2023/09/19 13:03:28;;;;;;;0.90;0.90;;;21.60;95.10;;;;;;4990401;28;20486;-81
2023/09/19 13:05:56;;;;;;;0.82;0.82;;;21.80;94.80;;;;;;4988166;28;20510;-80
2023/09/19 13:08:32;;;;;;;0.50;0.50;;;21.70;94.60;;;;;;4991510;28;20038;-80
2023/09/19 13:11:14;;;;;;;0.90;0.90;;;21.60;94.80;;;;;;4987997;28;20394;-81
2023/09/19 13:13:53;;;;;;;0.85;0.85;;;21.50;94.90;;;;;;4998083;28;20084;-80
2023/09/19 13:16:22;;;;;;;1.45;0.95;;;21.50;95.10;;;;;;4996390;28;20402;-79